createdAt,value
2017-03-26T00:00:23.004Z,26.72
2017-03-26T00:01:22.297Z,22.43
2017-03-26T00:02:21.606Z,30.68
2017-03-26T00:03:20.986Z,27.88
2017-03-26T00:04:20.289Z,21.42
2017-03-26T00:05:19.560Z,22.58
2017-03-26T00:06:18.887Z,21.62
2017-03-26T00:07:18.233Z,22.38
2017-03-26T00:08:17.532Z,25.37
2017-03-26T00:09:16.819Z,23.98
2017-03-26T00:10:16.108Z,26.43
2017-03-26T00:11:15.523Z,24.07
2017-03-26T00:12:14.809Z,27.53
2017-03-26T00:13:14.115Z,24.05
2017-03-26T00:14:13.508Z,20.53
2017-03-26T00:15:12.955Z,27.73
2017-03-26T00:16:12.270Z,23.02
2017-03-26T00:17:11.567Z,25.50
2017-03-26T00:18:10.874Z,30.35
2017-03-26T00:19:10.191Z,28.72
2017-03-26T00:20:09.494Z,23.63
2017-03-26T00:21:08.814Z,23.40
2017-03-26T00:22:08.370Z,25.57
2017-03-26T00:23:07.681Z,26.62
2017-03-26T00:24:07.014Z,23.05
2017-03-26T00:25:06.323Z,27.17
2017-03-26T00:26:05.620Z,23.67
2017-03-26T00:27:04.988Z,24.25
2017-03-26T00:28:04.291Z,21.87
2017-03-26T00:29:03.581Z,24.67
2017-03-26T00:30:03.649Z,23.00
2017-03-26T00:31:02.904Z,24.87
2017-03-26T00:32:02.244Z,28.18
2017-03-26T00:33:01.537Z,26.32
2017-03-26T00:34:00.820Z,28.23
2017-03-26T00:35:00.185Z,24.50
2017-03-26T00:35:59.889Z,23.83
2017-03-26T00:36:59.201Z,28.38
2017-03-26T00:38:00.893Z,23.92
2017-03-26T00:39:00.210Z,23.50
2017-03-26T00:40:05.033Z,23.53
2017-03-26T00:41:04.284Z,23.65
2017-03-26T00:42:03.540Z,24.43
2017-03-26T00:43:02.834Z,35.80
2017-03-26T00:44:02.229Z,22.33
2017-03-26T00:45:01.489Z,27.95
2017-03-26T00:46:00.808Z,27.87
2017-03-26T00:47:00.073Z,27.03
2017-03-26T00:47:59.393Z,24.20
2017-03-26T00:48:58.751Z,27.92
2017-03-26T00:49:58.043Z,24.50
2017-03-26T00:50:57.324Z,25.52
2017-03-26T00:51:57.065Z,26.45
2017-03-26T00:52:56.342Z,24.82
2017-03-26T00:53:55.734Z,27.52
2017-03-26T00:54:55.024Z,25.83
2017-03-26T00:55:54.386Z,26.30
2017-03-26T00:56:53.676Z,26.92
2017-03-26T00:57:52.974Z,28.88
2017-03-26T00:58:52.273Z,29.05
2017-03-26T00:59:51.511Z,30.33
2017-03-26T01:00:50.810Z,30.97
2017-03-26T01:01:50.148Z,30.88
2017-03-26T01:02:49.431Z,29.77
2017-03-26T01:03:49.213Z,30.10
2017-03-26T01:04:48.477Z,35.10
2017-03-26T01:05:47.854Z,29.07
2017-03-26T01:06:47.117Z,33.60
2017-03-26T01:07:46.453Z,28.40
2017-03-26T01:08:45.706Z,37.65
2017-03-26T01:09:45.196Z,33.93
2017-03-26T01:10:44.496Z,29.92
2017-03-26T01:11:43.827Z,26.50
2017-03-26T01:12:43.132Z,27.83
2017-03-26T01:13:42.467Z,25.43
2017-03-26T01:14:42.598Z,26.23
2017-03-26T01:15:42.642Z,24.38
2017-03-26T01:16:41.937Z,26.12
2017-03-26T01:17:41.281Z,22.93
2017-03-26T01:18:41.301Z,23.85
2017-03-26T01:19:40.628Z,22.10
2017-03-26T01:20:40.453Z,27.35
2017-03-26T01:21:39.736Z,23.33
2017-03-26T01:22:39.033Z,27.12
2017-03-26T01:23:38.353Z,26.82
2017-03-26T01:24:37.633Z,27.12
2017-03-26T01:25:36.934Z,27.30
2017-03-26T01:26:36.279Z,28.42
2017-03-26T01:27:36.396Z,31.07
2017-03-26T01:28:35.687Z,27.73
2017-03-26T01:29:35.008Z,21.87
2017-03-26T01:30:35.012Z,21.88
2017-03-26T01:31:34.238Z,23.92
2017-03-26T01:32:33.561Z,23.35
2017-03-26T01:33:32.915Z,28.65
2017-03-26T01:34:32.226Z,24.45
2017-03-26T01:35:31.638Z,26.72
2017-03-26T01:36:31.744Z,29.25
2017-03-26T01:37:31.083Z,27.08
2017-03-26T01:38:31.162Z,29.27
2017-03-26T01:39:30.528Z,22.30
2017-03-26T01:40:29.773Z,24.17
2017-03-26T01:41:29.162Z,26.90
2017-03-26T01:42:29.182Z,25.85
2017-03-26T01:43:28.882Z,22.82
2017-03-26T01:44:28.493Z,26.00
2017-03-26T01:45:27.931Z,26.58
2017-03-26T01:46:27.224Z,25.03
2017-03-26T01:47:26.568Z,26.90
2017-03-26T01:48:25.865Z,24.73
2017-03-26T01:49:25.167Z,25.20
2017-03-26T01:50:24.520Z,26.95
2017-03-26T01:51:23.859Z,29.42
2017-03-26T01:52:23.161Z,26.27
2017-03-26T01:53:22.481Z,21.40
2017-03-26T01:54:21.850Z,23.77
2017-03-26T01:55:21.202Z,29.68
2017-03-26T01:56:20.549Z,29.20
2017-03-26T01:57:19.888Z,28.75
2017-03-26T01:58:19.173Z,29.73
2017-03-26T01:59:18.565Z,22.52
2017-03-26T02:00:17.993Z,27.52
2017-03-26T02:01:17.313Z,25.37
2017-03-26T02:02:16.673Z,25.28
2017-03-26T02:03:15.978Z,25.72
2017-03-26T02:04:16.051Z,32.70
2017-03-26T02:05:15.439Z,26.82
2017-03-26T02:06:14.759Z,23.82
2017-03-26T02:07:14.082Z,25.63
2017-03-26T02:08:13.353Z,28.88
2017-03-26T02:09:13.431Z,31.43
2017-03-26T02:10:12.757Z,26.15
2017-03-26T02:11:12.068Z,28.40
2017-03-26T02:12:11.359Z,30.75
2017-03-26T02:13:10.639Z,30.52
2017-03-26T02:14:10.337Z,29.37
2017-03-26T02:15:09.669Z,38.03
2017-03-26T02:16:08.992Z,32.02
2017-03-26T02:17:08.333Z,30.73
2017-03-26T02:18:07.661Z,31.32
2017-03-26T02:19:06.975Z,33.42
2017-03-26T02:20:06.305Z,40.88
2017-03-26T02:21:05.592Z,38.82
2017-03-26T02:22:05.024Z,33.47
2017-03-26T02:23:04.302Z,26.03
2017-03-26T02:24:03.654Z,29.47
2017-03-26T02:25:03.273Z,22.22
2017-03-26T02:26:02.528Z,22.75
2017-03-26T02:27:01.817Z,23.13
2017-03-26T02:28:01.095Z,23.93
2017-03-26T02:29:00.408Z,26.10
2017-03-26T02:29:59.823Z,25.07
2017-03-26T02:30:59.182Z,23.53
2017-03-26T02:31:58.478Z,26.82
2017-03-26T02:32:57.763Z,23.90
2017-03-26T02:33:57.055Z,23.55
2017-03-26T02:34:56.329Z,23.85
2017-03-26T02:35:55.656Z,26.22
2017-03-26T02:36:54.907Z,26.58
2017-03-26T02:37:54.269Z,29.53
2017-03-26T02:38:53.682Z,27.95
2017-03-26T02:39:52.968Z,22.17
2017-03-26T02:40:52.269Z,28.02
2017-03-26T02:41:51.568Z,26.15
2017-03-26T02:42:51.065Z,30.48
2017-03-26T02:43:50.424Z,25.85
2017-03-26T02:44:49.756Z,23.63
2017-03-26T02:45:49.107Z,28.00
2017-03-26T02:46:48.549Z,21.25
2017-03-26T02:47:47.849Z,29.15
2017-03-26T02:48:47.167Z,23.52
2017-03-26T02:49:46.578Z,29.63
2017-03-26T02:50:45.924Z,24.22
2017-03-26T02:51:45.209Z,27.48
2017-03-26T02:52:44.490Z,25.33
2017-03-26T02:53:43.787Z,25.88
2017-03-26T02:54:43.201Z,28.88
2017-03-26T02:55:42.501Z,28.68
2017-03-26T02:56:41.778Z,26.62
2017-03-26T02:57:41.133Z,32.28
2017-03-26T02:58:40.399Z,33.03
2017-03-26T02:59:39.665Z,30.95
2017-03-26T03:00:39.325Z,30.05
2017-03-26T03:01:38.605Z,28.50
2017-03-26T03:02:37.912Z,31.62
2017-03-26T03:03:37.263Z,28.12
2017-03-26T03:04:36.537Z,28.50
2017-03-26T03:05:35.864Z,27.32
2017-03-26T03:06:35.233Z,29.92
2017-03-26T03:07:34.539Z,28.80
2017-03-26T03:08:33.836Z,23.93
2017-03-26T03:09:33.120Z,33.10
2017-03-26T03:10:33.183Z,28.72
2017-03-26T03:11:32.484Z,24.28
2017-03-26T03:12:31.775Z,28.27
2017-03-26T03:13:38.069Z,26.40
2017-03-26T03:14:37.429Z,29.48
2017-03-26T03:15:36.764Z,25.27
2017-03-26T03:16:36.109Z,26.08
2017-03-26T03:17:35.426Z,31.17
2017-03-26T03:18:35.456Z,35.40
2017-03-26T03:19:34.732Z,26.55
2017-03-26T03:20:34.037Z,36.48
2017-03-26T03:21:33.366Z,31.67
2017-03-26T03:22:33.197Z,28.68
2017-03-26T03:23:32.487Z,30.02
2017-03-26T03:24:31.790Z,32.82
2017-03-26T03:25:31.024Z,31.72
2017-03-26T03:26:30.415Z,32.17
2017-03-26T03:27:29.694Z,29.95
2017-03-26T03:28:29.170Z,28.85
2017-03-26T03:29:28.442Z,33.22
2017-03-26T03:30:27.726Z,28.12
2017-03-26T03:31:27.051Z,30.98
2017-03-26T03:32:26.401Z,31.50
2017-03-26T03:33:25.785Z,34.82
2017-03-26T03:34:25.045Z,30.22
2017-03-26T03:35:24.332Z,38.80
2017-03-26T03:36:23.672Z,34.85
2017-03-26T03:37:22.951Z,35.37
2017-03-26T03:38:22.309Z,34.95
2017-03-26T03:39:21.677Z,31.67
2017-03-26T03:40:20.983Z,35.17
2017-03-26T03:41:20.685Z,39.60
2017-03-26T03:42:20.049Z,29.78
2017-03-26T03:43:19.395Z,31.68
2017-03-26T03:44:18.715Z,33.47
2017-03-26T03:45:18.042Z,32.93
2017-03-26T03:46:17.394Z,30.47
2017-03-26T03:47:16.734Z,29.70
2017-03-26T03:48:16.011Z,30.63
2017-03-26T03:49:15.328Z,27.22
2017-03-26T03:50:14.626Z,33.72
2017-03-26T03:51:13.957Z,25.65
2017-03-26T03:52:13.309Z,34.00
2017-03-26T03:53:12.653Z,38.18
2017-03-26T03:54:12.097Z,36.57
2017-03-26T03:55:11.385Z,34.95
2017-03-26T03:56:10.636Z,35.35
2017-03-26T03:57:10.037Z,32.38
2017-03-26T03:58:09.392Z,30.20
2017-03-26T03:59:08.725Z,34.25
2017-03-26T04:00:08.015Z,34.75
2017-03-26T04:01:07.303Z,33.40
2017-03-26T04:02:06.668Z,37.22
2017-03-26T04:03:06.044Z,32.03
2017-03-26T04:04:05.356Z,32.95
2017-03-26T04:05:04.686Z,29.52
2017-03-26T04:06:03.965Z,34.75
2017-03-26T04:07:03.252Z,28.50
2017-03-26T04:08:02.508Z,32.70
2017-03-26T04:09:02.032Z,29.75
2017-03-26T04:10:01.352Z,29.88
2017-03-26T04:11:00.632Z,31.98
2017-03-26T04:11:59.920Z,27.15
2017-03-26T04:12:59.245Z,29.90
2017-03-26T04:13:58.509Z,33.45
2017-03-26T04:14:57.773Z,35.88
2017-03-26T04:15:57.084Z,35.43
2017-03-26T04:16:56.398Z,35.22
2017-03-26T04:17:55.666Z,33.87
2017-03-26T04:18:54.933Z,34.33
2017-03-26T04:19:54.212Z,37.25
2017-03-26T04:20:53.489Z,31.92
2017-03-26T04:21:52.809Z,32.35
2017-03-26T04:22:52.124Z,35.88
2017-03-26T04:23:54.983Z,39.65
2017-03-26T04:24:54.206Z,40.20
2017-03-26T04:25:53.482Z,38.40
2017-03-26T04:26:52.800Z,34.35
2017-03-26T04:27:52.111Z,39.93
2017-03-26T04:28:51.377Z,39.40
2017-03-26T04:29:51.087Z,44.08
2017-03-26T04:30:50.547Z,43.87
2017-03-26T04:31:49.836Z,33.87
2017-03-26T04:32:49.125Z,36.87
2017-03-26T04:33:49.322Z,35.03
2017-03-26T04:34:48.580Z,35.08
2017-03-26T04:35:47.912Z,31.60
2017-03-26T04:36:47.208Z,38.58
2017-03-26T04:37:46.494Z,32.42
2017-03-26T04:38:45.738Z,31.92
2017-03-26T04:39:45.018Z,32.15
2017-03-26T04:40:44.279Z,33.55
2017-03-26T04:41:42.840Z,32.95
2017-03-26T04:42:42.147Z,40.30
2017-03-26T04:43:41.425Z,30.50
2017-03-26T04:44:40.758Z,32.83
2017-03-26T04:45:40.061Z,35.67
2017-03-26T04:46:39.361Z,32.28
2017-03-26T04:47:38.706Z,27.48
2017-03-26T04:48:37.994Z,34.72
2017-03-26T04:49:37.247Z,34.98
2017-03-26T04:50:36.510Z,39.23
2017-03-26T04:51:35.861Z,33.40
2017-03-26T04:52:35.271Z,39.18
2017-03-26T04:53:34.553Z,38.12
2017-03-26T04:54:33.877Z,34.50
2017-03-26T04:55:33.146Z,31.23
2017-03-26T04:56:32.436Z,36.22
2017-03-26T04:57:32.769Z,30.30
2017-03-26T04:58:32.322Z,29.65
2017-03-26T04:59:31.595Z,32.72
2017-03-26T05:00:30.904Z,35.75
2017-03-26T05:01:30.203Z,36.40
2017-03-26T05:02:29.485Z,37.17
2017-03-26T05:03:28.781Z,31.60
2017-03-26T05:04:28.107Z,30.75
2017-03-26T05:05:27.381Z,32.62
2017-03-26T05:06:26.653Z,29.43
2017-03-26T05:07:25.932Z,26.30
2017-03-26T05:08:25.243Z,31.77
2017-03-26T05:09:24.540Z,31.22
2017-03-26T05:10:23.828Z,36.82
2017-03-26T05:11:23.126Z,32.90
2017-03-26T05:12:22.442Z,30.97
2017-03-26T05:13:21.780Z,31.15
2017-03-26T05:14:21.113Z,36.78
2017-03-26T05:15:20.375Z,32.08
2017-03-26T05:16:19.678Z,32.58
2017-03-26T05:17:19.714Z,34.52
2017-03-26T05:18:19.044Z,33.82
2017-03-26T05:19:18.383Z,33.88
2017-03-26T05:20:17.676Z,35.17
2017-03-26T05:21:16.977Z,37.65
2017-03-26T05:22:16.286Z,35.02
2017-03-26T05:23:15.648Z,36.13
2017-03-26T05:24:14.993Z,38.17
2017-03-26T05:25:14.338Z,34.43
2017-03-26T05:26:13.628Z,33.37
2017-03-26T05:27:12.984Z,30.93
2017-03-26T05:28:12.352Z,33.50
2017-03-26T05:29:11.669Z,32.23
2017-03-26T05:30:10.980Z,31.92
2017-03-26T05:31:10.351Z,27.32
2017-03-26T05:32:09.727Z,31.98
2017-03-26T05:33:09.083Z,33.12
2017-03-26T05:34:08.421Z,34.22
2017-03-26T05:35:07.727Z,30.93
2017-03-26T05:36:07.073Z,34.30
2017-03-26T05:37:06.428Z,33.90
2017-03-26T05:38:05.801Z,33.20
2017-03-26T05:39:05.119Z,36.40
2017-03-26T05:40:04.410Z,44.87
2017-03-26T05:41:03.702Z,35.42
2017-03-26T05:42:03.041Z,35.02
2017-03-26T05:43:02.391Z,36.20
2017-03-26T05:44:01.747Z,37.52
2017-03-26T05:45:01.222Z,36.63
2017-03-26T05:46:00.489Z,45.53
2017-03-26T05:46:59.758Z,39.25
2017-03-26T05:47:59.103Z,33.55
2017-03-26T05:48:58.455Z,33.88
2017-03-26T05:49:57.728Z,41.95
2017-03-26T05:50:56.997Z,32.58
2017-03-26T05:51:56.284Z,35.32
2017-03-26T05:52:55.566Z,34.47
2017-03-26T05:53:54.910Z,36.20
2017-03-26T05:54:54.210Z,43.77
2017-03-26T05:55:53.502Z,35.23
2017-03-26T05:56:52.775Z,41.55
2017-03-26T05:57:52.025Z,43.72
2017-03-26T05:58:51.355Z,39.62
2017-03-26T05:59:50.613Z,43.35
2017-03-26T06:00:49.944Z,38.87
2017-03-26T06:01:49.194Z,35.33
2017-03-26T06:02:48.494Z,37.15
2017-03-26T06:03:47.867Z,40.30
2017-03-26T06:04:47.163Z,35.10
2017-03-26T06:05:46.445Z,38.52
2017-03-26T06:06:45.744Z,36.67
2017-03-26T06:07:45.081Z,40.17
2017-03-26T06:08:44.353Z,34.47
2017-03-26T06:09:43.616Z,37.47
2017-03-26T06:10:42.900Z,38.93
2017-03-26T06:11:42.149Z,39.23
2017-03-26T06:12:41.431Z,34.78
2017-03-26T06:13:41.049Z,34.18
2017-03-26T06:14:40.411Z,35.55
2017-03-26T06:15:39.687Z,33.53
2017-03-26T06:16:38.986Z,33.83
2017-03-26T06:17:38.291Z,32.40
2017-03-26T06:18:37.549Z,31.90
2017-03-26T06:19:36.856Z,34.20
2017-03-26T06:20:36.142Z,31.15
2017-03-26T06:21:35.389Z,31.70
2017-03-26T06:22:34.732Z,35.20
2017-03-26T06:23:33.986Z,32.47
2017-03-26T06:24:33.870Z,35.47
2017-03-26T06:25:33.189Z,34.38
2017-03-26T06:26:32.469Z,30.65
2017-03-26T06:27:31.705Z,33.98
2017-03-26T06:28:31.012Z,25.20
2017-03-26T06:29:30.315Z,26.83
2017-03-26T06:30:29.855Z,24.77
2017-03-26T06:31:28.353Z,26.80
2017-03-26T06:32:27.645Z,27.85
2017-03-26T06:33:26.965Z,23.62
2017-03-26T06:34:26.297Z,29.62
2017-03-26T06:35:25.582Z,23.75
2017-03-26T06:36:24.912Z,27.00
2017-03-26T06:37:24.545Z,25.18
2017-03-26T06:38:23.884Z,24.85
2017-03-26T06:39:23.228Z,22.42
2017-03-26T06:40:22.540Z,20.73
2017-03-26T06:41:22.551Z,23.97
2017-03-26T06:42:21.859Z,26.48
2017-03-26T06:43:21.540Z,25.20
2017-03-26T06:44:20.866Z,24.07
2017-03-26T06:45:20.157Z,25.30
2017-03-26T06:46:19.479Z,24.75
2017-03-26T06:47:18.802Z,30.62
2017-03-26T06:48:18.790Z,26.70
2017-03-26T06:49:18.129Z,26.75
2017-03-26T06:50:17.389Z,30.35
2017-03-26T06:51:16.677Z,27.80
2017-03-26T06:52:16.097Z,32.40
2017-03-26T06:53:15.401Z,27.27
2017-03-26T06:54:15.302Z,28.58
2017-03-26T06:55:14.664Z,28.08
2017-03-26T06:56:13.955Z,27.55
2017-03-26T06:57:13.252Z,28.45
2017-03-26T06:58:12.607Z,32.25
2017-03-26T06:59:12.260Z,26.58
2017-03-26T07:09:03.313Z,26.28
2017-03-26T07:10:05.497Z,27.17
2017-03-26T07:11:04.849Z,26.45
2017-03-26T07:12:04.326Z,30.18
2017-03-26T07:13:03.590Z,26.80
2017-03-26T07:14:02.901Z,30.05
2017-03-26T07:15:02.196Z,31.85
2017-03-26T07:16:01.526Z,25.05
2017-03-26T07:17:01.573Z,29.82
2017-03-26T07:18:00.863Z,27.03
2017-03-26T07:19:00.173Z,27.80
2017-03-26T07:19:59.558Z,28.92
2017-03-26T07:20:58.934Z,28.02
2017-03-26T07:21:58.222Z,27.02
2017-03-26T07:22:58.257Z,24.93
2017-03-26T07:23:57.523Z,27.80
2017-03-26T07:24:57.108Z,30.45
2017-03-26T07:25:56.430Z,29.37
2017-03-26T07:26:55.665Z,24.98
2017-03-26T07:27:54.912Z,27.82
2017-03-26T07:28:54.196Z,25.87
2017-03-26T07:29:54.190Z,29.97
2017-03-26T07:30:54.226Z,27.30
2017-03-26T07:31:53.506Z,29.82
2017-03-26T07:32:53.509Z,30.35
2017-03-26T07:33:52.848Z,29.83
2017-03-26T07:34:52.130Z,28.90
2017-03-26T07:35:51.443Z,33.00
2017-03-26T07:36:50.705Z,27.48
2017-03-26T07:37:49.995Z,28.55
2017-03-26T07:38:49.253Z,30.13
2017-03-26T07:39:48.565Z,29.92
2017-03-26T07:40:47.946Z,27.03
2017-03-26T07:41:47.254Z,28.92
2017-03-26T07:42:46.508Z,26.97
2017-03-26T07:43:45.843Z,25.37
2017-03-26T07:44:45.073Z,31.12
2017-03-26T07:45:44.557Z,27.87
2017-03-26T07:46:43.867Z,31.35
2017-03-26T07:47:43.129Z,25.62
2017-03-26T07:48:42.439Z,31.43
2017-03-26T07:49:41.720Z,28.25
2017-03-26T07:50:41.076Z,30.17
2017-03-26T07:51:40.321Z,28.15
2017-03-26T07:52:39.604Z,28.98
2017-03-26T07:53:38.900Z,25.85
2017-03-26T07:54:38.243Z,28.72
2017-03-26T07:55:37.590Z,28.88
2017-03-26T07:56:36.867Z,28.15
2017-03-26T07:57:36.148Z,26.00
2017-03-26T07:58:35.396Z,31.82
2017-03-26T07:59:34.727Z,24.95
2017-03-26T08:00:34.017Z,28.52
2017-03-26T08:01:33.325Z,23.78
2017-03-26T08:02:34.773Z,23.32
2017-03-26T08:03:34.133Z,26.28
2017-03-26T08:04:33.503Z,24.13
2017-03-26T08:05:33.605Z,22.70
2017-03-26T08:06:32.866Z,23.97
2017-03-26T08:07:32.173Z,26.80
2017-03-26T08:08:31.464Z,26.13
2017-03-26T08:09:30.799Z,23.50
2017-03-26T08:10:30.126Z,24.42
2017-03-26T08:11:29.465Z,20.15
2017-03-26T08:12:28.783Z,21.07
2017-03-26T08:13:28.205Z,23.60
2017-03-26T08:14:27.449Z,24.72
2017-03-26T08:15:27.310Z,24.23
2017-03-26T08:16:26.679Z,21.42
2017-03-26T08:17:26.255Z,25.23
2017-03-26T08:18:25.548Z,23.52
2017-03-26T08:19:24.793Z,26.78
2017-03-26T08:20:24.068Z,20.64
2017-03-26T08:21:23.366Z,26.65
2017-03-26T08:22:22.585Z,26.37
2017-03-26T08:23:22.503Z,24.92
2017-03-26T08:24:21.825Z,24.82
2017-03-26T08:25:21.128Z,23.95
2017-03-26T08:26:20.432Z,24.00
2017-03-26T08:27:19.698Z,22.32
2017-03-26T08:28:19.011Z,29.08
2017-03-26T08:29:18.346Z,20.88
2017-03-26T08:30:18.391Z,24.87
2017-03-26T08:31:17.688Z,18.72
2017-03-26T08:32:17.190Z,26.18
2017-03-26T08:33:16.489Z,22.68
2017-03-26T08:34:15.805Z,20.97
2017-03-26T08:35:15.081Z,21.72
2017-03-26T08:36:14.381Z,19.78
2017-03-26T08:37:13.704Z,19.70
2017-03-26T08:38:13.009Z,22.95
2017-03-26T08:39:12.297Z,24.52
2017-03-26T08:40:11.599Z,21.45
2017-03-26T08:41:10.942Z,20.65
2017-03-26T08:42:10.281Z,20.33
2017-03-26T08:49:03.305Z,20.55
2017-03-26T08:50:03.361Z,18.22
2017-03-26T08:51:02.743Z,20.33
2017-03-26T08:52:02.886Z,17.68
2017-03-26T08:53:02.147Z,21.38
2017-03-26T08:54:01.487Z,20.50
2017-03-26T08:55:00.788Z,23.67
2017-03-26T08:56:00.072Z,19.25
2017-03-26T08:56:59.404Z,22.82
2017-03-26T08:57:58.699Z,16.08
2017-03-26T08:58:57.986Z,22.17
2017-03-26T08:59:57.257Z,17.57
2017-03-26T09:00:56.517Z,22.15
2017-03-26T09:01:55.862Z,20.18
2017-03-26T09:02:55.158Z,17.70
2017-03-26T09:03:54.446Z,22.78
2017-03-26T09:04:53.801Z,21.98
2017-03-26T09:05:53.810Z,17.55
2017-03-26T09:06:53.130Z,20.28
2017-03-26T09:07:52.453Z,25.00
2017-03-26T09:08:51.702Z,17.97
2017-03-26T09:09:51.010Z,19.72
2017-03-26T09:10:50.315Z,23.42
2017-03-26T09:11:49.599Z,17.88
2017-03-26T09:12:48.883Z,21.52
2017-03-26T09:13:48.209Z,18.60
2017-03-26T09:14:47.501Z,20.22
2017-03-26T09:15:46.777Z,16.93
2017-03-26T09:16:46.115Z,20.25
2017-03-26T09:17:45.423Z,14.88
2017-03-26T09:18:44.717Z,20.83
2017-03-26T09:19:43.966Z,18.12
2017-03-26T09:20:43.300Z,16.13
2017-03-26T09:21:44.098Z,21.42
2017-03-26T09:22:43.386Z,15.78
2017-03-26T09:23:42.670Z,20.43
2017-03-26T09:24:42.009Z,17.18
2017-03-26T09:25:41.337Z,17.95
2017-03-26T09:26:40.622Z,22.55
2017-03-26T09:27:39.957Z,18.62
2017-03-26T09:28:39.277Z,18.77
2017-03-26T09:29:38.545Z,16.22
2017-03-26T09:30:37.846Z,18.40
2017-03-26T09:31:37.179Z,16.68
2017-03-26T09:32:36.501Z,20.68
2017-03-26T09:33:35.837Z,20.03
2017-03-26T09:34:35.133Z,16.25
2017-03-26T09:35:34.463Z,20.32
2017-03-26T09:36:34.033Z,20.02
2017-03-26T09:37:33.357Z,17.15
2017-03-26T09:38:33.380Z,18.18
2017-03-26T09:39:32.679Z,18.88
2017-03-26T09:40:31.994Z,11.42
2017-03-26T09:41:31.321Z,20.27
2017-03-26T09:42:31.394Z,15.47
2017-03-26T09:43:30.706Z,20.10
2017-03-26T09:44:30.024Z,15.72
2017-03-26T09:45:29.286Z,19.70
2017-03-26T09:46:28.604Z,18.82
2017-03-26T09:47:27.990Z,15.50
2017-03-26T09:48:27.362Z,16.12
2017-03-26T09:49:26.684Z,16.78
2017-03-26T09:50:25.999Z,16.72
2017-03-26T09:51:25.310Z,13.13
2017-03-26T09:52:24.637Z,14.75
2017-03-26T09:53:23.927Z,14.37
2017-03-26T09:54:23.970Z,15.15
2017-03-26T09:55:24.028Z,13.38
2017-03-26T09:56:23.419Z,17.97
2017-03-26T09:57:23.204Z,18.05
2017-03-26T09:58:22.496Z,16.85
2017-03-26T09:59:21.789Z,17.12
2017-03-26T10:00:21.190Z,13.50
2017-03-26T10:01:20.514Z,16.42
2017-03-26T10:02:19.901Z,15.55
2017-03-26T10:03:19.291Z,14.92
2017-03-26T10:04:19.589Z,19.38
2017-03-26T10:05:18.906Z,14.93
2017-03-26T10:06:18.196Z,10.35
2017-03-26T10:07:17.480Z,16.67
2017-03-26T10:08:16.873Z,9.73
2017-03-26T10:09:16.188Z,6.70
2017-03-26T10:10:15.480Z,8.48
2017-03-26T10:11:14.856Z,11.33
2017-03-26T10:12:14.256Z,10.45
2017-03-26T10:13:13.611Z,5.72
2017-03-26T10:14:12.896Z,11.20
2017-03-26T10:15:12.307Z,7.57
2017-03-26T10:16:13.464Z,8.35
2017-03-26T10:17:14.408Z,9.03
2017-03-26T10:18:13.763Z,9.52
2017-03-26T10:19:13.062Z,8.30
2017-03-26T10:20:12.390Z,7.23
2017-03-26T10:29:02.940Z,5.28
2017-03-26T10:30:02.258Z,5.48
2017-03-26T10:31:02.329Z,7.43
2017-03-26T10:32:01.643Z,8.12
2017-03-26T10:33:00.962Z,9.05
2017-03-26T10:34:00.593Z,10.55
2017-03-26T10:34:59.893Z,11.25
2017-03-26T10:35:59.250Z,10.93
2017-03-26T10:36:58.543Z,8.83
2017-03-26T10:37:57.835Z,11.22
2017-03-26T10:38:57.210Z,8.83
2017-03-26T10:39:56.478Z,7.62
2017-03-26T10:40:55.801Z,7.73
2017-03-26T10:41:55.133Z,6.73
2017-03-26T10:42:55.160Z,9.87
2017-03-26T10:43:54.478Z,7.48
2017-03-26T10:44:53.821Z,7.80
2017-03-26T10:45:53.101Z,11.17
2017-03-26T10:46:52.419Z,8.33
2017-03-26T10:47:51.823Z,7.43
2017-03-26T10:48:51.879Z,9.57
2017-03-26T10:49:51.187Z,8.72
2017-03-26T10:50:50.522Z,9.02
2017-03-26T10:51:49.821Z,9.65
2017-03-26T10:52:49.097Z,10.83
2017-03-26T10:53:49.169Z,10.40
2017-03-26T10:54:48.513Z,10.85
2017-03-26T10:55:47.841Z,8.82
2017-03-26T10:56:47.139Z,10.87
2017-03-26T10:57:46.445Z,7.98
2017-03-26T10:58:45.778Z,10.97
2017-03-26T10:59:45.153Z,10.95
2017-03-26T11:00:44.508Z,6.03
2017-03-26T11:01:43.775Z,10.00
2017-03-26T11:02:43.068Z,8.85
2017-03-26T11:03:42.373Z,6.00
2017-03-26T11:04:41.720Z,5.80
2017-03-26T11:05:41.079Z,7.30
2017-03-26T11:06:40.397Z,10.53
2017-03-26T11:07:39.801Z,6.67
2017-03-26T11:08:39.151Z,9.15
2017-03-26T11:09:38.461Z,7.07
2017-03-26T11:10:37.823Z,8.70
2017-03-26T11:11:37.143Z,13.02
2017-03-26T11:12:36.475Z,10.33
2017-03-26T11:13:36.203Z,8.23
2017-03-26T11:14:35.607Z,8.12
2017-03-26T11:15:34.911Z,9.45
2017-03-26T11:16:34.492Z,7.75
2017-03-26T11:17:35.863Z,8.87
2017-03-26T11:18:35.287Z,6.47
2017-03-26T11:19:35.993Z,6.82
2017-03-26T11:20:35.359Z,8.72
2017-03-26T11:21:34.674Z,9.55
2017-03-26T11:22:34.031Z,11.72
2017-03-26T11:23:33.345Z,6.45
2017-03-26T11:24:32.741Z,8.90
2017-03-26T11:25:32.065Z,9.38
2017-03-26T11:26:31.392Z,7.07
2017-03-26T11:27:30.717Z,8.20
2017-03-26T11:28:30.101Z,8.44
2017-03-26T11:29:29.597Z,7.58
2017-03-26T11:30:28.927Z,7.73
2017-03-26T11:31:28.276Z,13.33
2017-03-26T11:32:27.783Z,11.70
2017-03-26T11:33:27.127Z,8.23
2017-03-26T11:34:26.564Z,9.52
2017-03-26T11:35:25.889Z,10.82
2017-03-26T11:36:25.268Z,6.80
2017-03-26T11:37:24.572Z,8.05
2017-03-26T11:38:23.981Z,9.93
2017-03-26T11:39:23.315Z,9.90
2017-03-26T11:40:22.588Z,6.83
2017-03-26T11:41:21.868Z,10.43
2017-03-26T11:42:21.175Z,8.17
2017-03-26T11:43:20.527Z,9.33
2017-03-26T11:44:19.866Z,12.23
2017-03-26T11:45:19.241Z,7.47
2017-03-26T11:46:18.555Z,10.47
2017-03-26T11:47:17.869Z,9.53
2017-03-26T11:48:17.197Z,7.58
2017-03-26T11:49:16.559Z,8.05
2017-03-26T11:50:15.908Z,8.33
2017-03-26T11:51:15.272Z,6.77
2017-03-26T11:52:14.602Z,9.12
2017-03-26T11:53:13.971Z,7.47
2017-03-26T11:54:13.643Z,5.98
2017-03-26T11:55:13.048Z,9.57
2017-03-26T11:56:12.376Z,9.87
2017-03-26T11:57:11.786Z,14.07
2017-03-26T11:58:11.157Z,13.33
2017-03-26T11:59:10.570Z,11.32
2017-03-26T12:00:10.012Z,13.00
2017-03-26T12:01:09.380Z,12.48
2017-03-26T12:02:09.001Z,15.25
2017-03-26T12:03:09.055Z,11.95
2017-03-26T12:04:08.441Z,15.70
2017-03-26T12:05:07.830Z,16.25
2017-03-26T12:06:07.381Z,12.28
2017-03-26T12:07:06.968Z,13.50
2017-03-26T12:08:06.280Z,10.70
2017-03-26T12:09:06.047Z,10.57
2017-03-26T12:10:05.514Z,10.68
2017-03-26T12:11:04.906Z,11.37
2017-03-26T12:12:04.347Z,14.03
2017-03-26T12:13:03.661Z,11.75
2017-03-26T12:14:02.941Z,11.80
2017-03-26T12:15:02.502Z,11.88
2017-03-26T12:16:01.794Z,10.73
2017-03-26T12:17:01.114Z,10.33
2017-03-26T12:18:00.526Z,10.80
2017-03-26T12:18:59.798Z,11.45
2017-03-26T12:19:59.127Z,12.27
2017-03-26T12:20:58.437Z,13.40
2017-03-26T12:21:57.788Z,10.70
2017-03-26T12:22:57.083Z,17.20
2017-03-26T12:23:56.383Z,9.72
2017-03-26T12:24:55.893Z,10.73
2017-03-26T12:25:55.166Z,10.07
2017-03-26T12:26:54.474Z,10.87
2017-03-26T12:27:53.965Z,9.37
2017-03-26T12:28:53.478Z,10.50
2017-03-26T12:29:52.793Z,8.62
2017-03-26T12:30:52.151Z,9.17
2017-03-26T12:31:51.462Z,12.78
2017-03-26T12:32:50.772Z,9.22
2017-03-26T12:33:50.130Z,12.47
2017-03-26T12:34:49.737Z,17.03
2017-03-26T12:35:49.040Z,13.50
2017-03-26T12:36:48.432Z,11.28
2017-03-26T12:37:47.660Z,14.78
2017-03-26T12:38:46.948Z,14.42
2017-03-26T12:39:46.196Z,12.83
2017-03-26T12:40:45.544Z,9.67
2017-03-26T12:41:44.805Z,9.77
2017-03-26T12:42:44.072Z,12.85
2017-03-26T12:43:43.375Z,14.07
2017-03-26T12:44:42.674Z,8.37
2017-03-26T12:45:41.960Z,10.07
2017-03-26T12:46:41.240Z,11.05
2017-03-26T12:47:40.520Z,8.72
2017-03-26T12:48:39.816Z,8.25
2017-03-26T12:49:39.106Z,9.88
2017-03-26T12:50:38.399Z,10.28
2017-03-26T12:51:37.652Z,9.55
2017-03-26T12:52:36.938Z,8.00
2017-03-26T12:53:36.412Z,6.77
2017-03-26T12:54:35.698Z,7.02
2017-03-26T12:55:35.067Z,7.87
2017-03-26T12:56:35.055Z,7.70
2017-03-26T12:57:34.376Z,7.23
2017-03-26T12:58:33.662Z,8.88
2017-03-26T12:59:32.916Z,9.40
2017-03-26T13:00:32.255Z,9.12
2017-03-26T13:01:31.613Z,7.82
2017-03-26T13:02:30.915Z,10.55
2017-03-26T13:03:30.291Z,8.50
2017-03-26T13:04:29.599Z,7.35
2017-03-26T13:05:29.059Z,8.82
2017-03-26T13:06:28.303Z,8.35
2017-03-26T13:07:27.599Z,9.35
2017-03-26T13:08:26.870Z,7.67
2017-03-26T13:09:26.182Z,7.82
2017-03-26T13:10:25.914Z,6.93
2017-03-26T13:11:25.269Z,6.73